Time;durP1;ratioP1;P1;durP2;ratioP2;P2;SDS_P1;SDS_P2;PMS_P1;PMS_P2;Temp;Humidity;BMP_temperature;BMP_pressure;BME280_temperature;BME280_humidity;BME280_pressure;Samples;Min_cycle;Max_cycle;Signal;HPM_P1;HPM_P2
2022/10/29 00:01:30;;;;;;;13.63;4.40;;;;;;;23.18;49.95;102143.28;5092329;28;20032;-72
2022/10/29 00:03:56;;;;;;;11.70;4.43;;;;;;;23.18;50.02;102138.78;5093275;28;20031;-72
2022/10/29 00:06:21;;;;;;;11.52;5.07;;;;;;;23.19;49.78;102144.94;5097481;28;20478;-72
2022/10/29 00:08:47;;;;;;;8.55;4.57;;;;;;;23.26;49.78;102142.41;5093324;28;20044;-72
2022/10/29 00:11:12;;;;;;;11.43;4.22;;;;;;;23.19;49.96;102148.41;5091005;28;20047;-72
2022/10/29 00:13:38;;;;;;;14.25;4.90;;;;;;;23.21;49.96;102146.41;5090731;28;21331;-72
2022/10/29 00:16:13;;;;;;;12.05;4.57;;;;;;;23.11;49.96;102144.94;5095521;28;20047;-72
2022/10/29 00:18:39;;;;;;;11.57;4.32;;;;;;;23.19;49.67;102144.94;5094626;28;20032;-74
2022/10/29 00:21:09;;;;;;;10.98;4.55;;;;;;;23.19;49.67;102152.91;5091652;28;20032;-72
2022/10/29 00:23:35;;;;;;;11.20;4.47;;;;;;;23.18;49.53;102145.94;5093111;28;20047;-72
2022/10/29 00:26:01;;;;;;;11.88;4.32;;;;;;;23.17;49.83;102158.41;5091215;28;20039;-72
2022/10/29 00:28:28;;;;;;;8.50;3.70;;;;;;;23.16;49.65;102158.53;5091855;28;20656;-72
2022/10/29 00:30:54;;;;;;;13.98;4.78;;;;;;;23.14;49.91;102157.88;5088276;28;20100;-72
2022/10/29 00:33:20;;;;;;;10.57;4.45;;;;;;;23.13;49.98;102157.06;5090819;28;20043;-73
2022/10/29 00:35:55;;;;;;;10.93;5.03;;;;;;;23.18;49.80;102154.75;5087339;28;20043;-72
2022/10/29 00:38:21;;;;;;;10.60;3.80;;;;;;;23.10;50.07;102146.75;5095196;28;20131;-73
2022/10/29 00:40:47;;;;;;;10.30;4.22;;;;;;;23.20;49.82;102152.72;5093865;28;20106;-73
2022/10/29 00:43:14;;;;;;;10.13;3.75;;;;;;;23.07;49.98;102157.75;5092371;28;20051;-72
2022/10/29 00:45:47;;;;;;;6.93;3.88;;;;;;;23.08;49.73;102148.75;5090256;28;20096;-72
2022/10/29 00:48:12;;;;;;;11.70;3.95;;;;;;;23.03;50.26;102158.25;5094492;28;20066;-72
2022/10/29 00:50:38;;;;;;;7.68;3.75;;;;;;;23.07;49.75;102146.28;5090321;28;20049;-72
2022/10/29 00:53:03;;;;;;;10.70;3.80;;;;;;;22.97;50.03;102150.94;5088274;28;20039;-72
2022/10/29 00:55:30;;;;;;;8.90;4.20;;;;;;;23.01;50.26;102153.13;5090540;28;20438;-72
2022/10/29 00:57:56;;;;;;;11.77;4.60;;;;;;;22.99;50.28;102143.66;5092907;28;20053;-72
2022/10/29 01:00:22;;;;;;;15.63;4.22;;;;;;;23.06;49.90;102141.97;5096298;28;20047;-72
2022/10/29 01:02:48;;;;;;;8.88;4.05;;;;;;;22.99;50.06;102125.06;5098147;28;20040;-72
2022/10/29 01:05:18;;;;;;;7.55;3.78;;;;;;;23.06;49.81;102124.19;5095032;28;20040;-72
2022/10/29 01:07:45;;;;;;;8.27;3.92;;;;;;;23.00;49.93;102122.22;5088517;28;20271;-72
2022/10/29 01:10:11;;;;;;;11.32;4.43;;;;;;;22.99;50.35;102122.41;5094251;28;20074;-72
2022/10/29 01:12:42;;;;;;;11.80;4.13;;;;;;;23.04;49.94;102128.84;5093781;28;20050;-72
2022/10/29 01:15:25;;;;;;;10.60;3.88;;;;;;;23.01;50.15;102136.34;5095807;28;20035;-72
2022/10/29 01:18:16;;;;;;;8.60;3.47;;;;;;;22.96;50.23;102142.13;5093020;28;20056;-72
2022/10/29 01:21:00;;;;;;;10.25;4.20;;;;;;;22.98;50.42;102145.47;5093678;28;20098;-72
2022/10/29 01:23:40;;;;;;;10.75;3.45;;;;;;;23.02;49.72;102143.31;5097187;28;20036;-72
2022/10/29 01:27:00;;;;;;;13.20;3.97;;;;;;;23.04;49.78;102146.63;5091905;28;20038;-71
2022/10/29 01:29:47;;;;;;;7.38;3.50;;;;;;;22.90;50.35;102138.34;5038228;28;20036;-72
2022/10/29 01:32:18;;;;;;;10.23;3.88;;;;;;;22.99;49.72;102130.38;5094430;28;20047;-72
2022/10/29 01:34:59;;;;;;;12.40;3.80;;;;;;;22.96;49.81;102128.84;5088293;28;20040;-72
2022/10/29 01:37:39;;;;;;;7.60;3.28;;;;;;;22.92;50.12;102120.41;5091970;28;22180;-72
2022/10/29 01:40:16;;;;;;;8.02;3.40;;;;;;;22.92;50.02;102117.75;5094312;28;20040;-73
2022/10/29 01:43:03;;;;;;;9.68;4.05;;;;;;;22.96;49.98;102123.53;5090049;28;20115;-73
2022/10/29 01:45:35;;;;;;;11.93;3.35;;;;;;;22.97;50.19;102124.38;5091300;28;20028;-73
2022/10/29 01:48:26;;;;;;;9.48;3.78;;;;;;;22.90;49.96;102118.91;5095145;28;20059;-72
2022/10/29 01:50:57;;;;;;;7.47;3.40;;;;;;;22.89;50.01;102117.25;5092119;28;20119;-72
2022/10/29 01:53:24;;;;;;;8.05;3.50;;;;;;;22.87;50.15;102098.84;5093175;28;20044;-72
2022/10/29 01:55:49;;;;;;;8.27;3.85;;;;;;;22.92;49.74;102093.00;5090740;28;20044;-72
2022/10/29 01:58:15;;;;;;;8.57;3.50;;;;;;;22.88;50.25;102087.22;5087890;28;20073;-72
2022/10/29 02:01:05;;;;;;;6.72;3.67;;;;;;;22.80;50.26;102078.38;5093553;28;20047;-72
2022/10/29 02:04:03;;;;;;;6.35;3.20;;;;;;;22.93;49.86;102089.34;5095869;28;20118;-74
2022/10/29 02:06:41;;;;;;;10.98;3.53;;;;;;;22.85;50.09;102090.22;5088541;28;20039;-72
2022/10/29 02:09:25;;;;;;;9.13;4.10;;;;;;;22.89;50.24;102093.34;5092396;28;20036;-72
2022/10/29 02:12:11;;;;;;;6.00;3.28;;;;;;;22.84;50.26;102095.69;5092074;28;20482;-72
2022/10/29 02:14:47;;;;;;;7.63;3.33;;;;;;;22.86;49.91;102093.69;5090028;28;20568;-72
2022/10/29 02:17:13;;;;;;;9.95;3.80;;;;;;;22.89;49.77;102091.53;5091152;28;20039;-72
2022/10/29 02:19:38;;;;;;;8.98;3.15;;;;;;;22.73;50.29;102086.22;5093056;28;20157;-72
2022/10/29 02:22:04;;;;;;;9.60;4.07;;;;;;;22.83;50.26;102084.25;5090267;28;20039;-72
2022/10/29 02:24:29;;;;;;;6.90;3.58;;;;;;;22.75;50.32;102076.25;5094002;28;20043;-72
2022/10/29 02:26:55;;;;;;;7.38;3.28;;;;;;;22.77;50.05;102060.16;5090423;28;20654;-72
2022/10/29 02:29:20;;;;;;;12.38;3.90;;;;;;;22.69;50.11;102052.22;5093548;28;20968;-72
2022/10/29 02:31:46;;;;;;;6.60;3.42;;;;;;;22.73;50.24;102064.16;5092704;28;20043;-72
2022/10/29 02:34:12;;;;;;;7.18;3.72;;;;;;;22.77;49.97;102068.94;5095554;28;20080;-72
2022/10/29 02:36:37;;;;;;;7.57;3.63;;;;;;;22.79;50.24;102069.59;5089143;28;20038;-72
2022/10/29 02:39:03;;;;;;;7.68;3.22;;;;;;;22.72;50.17;102057.19;5091279;28;20885;-72
2022/10/29 02:41:28;;;;;;;7.07;3.17;;;;;;;22.83;49.80;102072.78;5091984;28;20047;-72
2022/10/29 02:43:54;;;;;;;12.30;3.85;;;;;;;22.73;50.17;102066.78;5091614;28;20070;-73
2022/10/29 02:46:22;;;;;;;9.00;3.00;;;;;;;22.77;49.92;102057.50;5092732;28;20676;-72
2022/10/29 02:48:48;;;;;;;7.80;3.45;;;;;;;22.72;50.22;102059.84;5101546;28;20035;-72
2022/10/29 02:51:15;;;;;;;10.00;3.10;;;;;;;22.70;50.46;102061.84;5094209;28;20067;-72
2022/10/29 02:53:41;;;;;;;9.40;4.18;;;;;;;22.71;50.43;102055.53;5091773;28;20126;-72
2022/10/29 02:56:07;;;;;;;7.70;3.28;;;;;;;22.76;50.18;102051.34;5092089;28;20434;-73
2022/10/29 02:58:33;;;;;;;6.45;3.20;;;;;;;22.68;50.20;102040.75;5095824;28;20051;-72
2022/10/29 03:00:59;;;;;;;6.65;3.10;;;;;;;22.65;50.55;102050.91;5092656;28;20139;-72
2022/10/29 03:03:25;;;;;;;7.38;3.10;;;;;;;22.73;50.05;102051.69;5090869;28;21116;-74
2022/10/29 03:05:51;;;;;;;7.57;3.10;;;;;;;22.73;50.02;102064.16;5092290;28;20044;-72
2022/10/29 03:08:17;;;;;;;7.03;3.10;;;;;;;22.77;49.87;102076.91;5097051;28;20035;-73
2022/10/29 03:10:42;;;;;;;7.82;3.38;;;;;;;22.77;49.79;102068.94;5091860;28;20050;-73
2022/10/29 03:13:08;;;;;;;7.93;3.13;;;;;;;22.70;50.10;102072.44;5090960;28;20039;-73
2022/10/29 03:15:34;;;;;;;6.07;2.70;;;;;;;22.79;49.92;102069.59;5091519;28;20043;-73
2022/10/29 03:18:00;;;;;;;10.00;3.50;;;;;;;22.76;49.67;102063.81;5094835;28;20074;-73
2022/10/29 03:20:25;;;;;;;6.93;3.13;;;;;;;22.68;50.13;102067.31;5093968;28;20043;-73
2022/10/29 03:22:51;;;;;;;8.10;3.08;;;;;;;22.75;50.22;102068.28;5092829;28;20036;-73
2022/10/29 03:25:16;;;;;;;6.93;3.17;;;;;;;22.73;49.79;102067.63;5093006;28;20061;-73
2022/10/29 03:27:43;;;;;;;7.00;3.15;;;;;;;22.66;50.10;102076.44;5094335;27;20696;-73
2022/10/29 03:30:10;;;;;;;9.32;3.35;;;;;;;22.68;50.22;102077.94;5094368;28;20039;-73
2022/10/29 03:32:40;;;;;;;5.40;2.90;;;;;;;22.71;50.05;102074.09;5094973;28;20044;-73
2022/10/29 03:35:07;;;;;;;7.80;2.97;;;;;;;22.61;50.40;102068.97;5091277;28;20043;-73
2022/10/29 03:37:32;;;;;;;6.45;3.42;;;;;;;22.60;50.13;102075.28;5087162;28;20059;-74
2022/10/29 03:39:58;;;;;;;4.85;2.53;;;;;;;22.66;50.15;102065.81;5092071;28;20097;-74
2022/10/29 03:42:25;;;;;;;5.80;3.20;;;;;;;22.66;50.28;102071.97;5091013;28;20154;-75
2022/10/29 03:44:50;;;;;;;6.03;2.90;;;;;;;22.67;50.08;102060.34;5088526;28;20069;-73
2022/10/29 03:47:16;;;;;;;8.65;3.00;;;;;;;22.64;50.29;102060.69;5091304;28;20032;-73
2022/10/29 03:49:41;;;;;;;5.65;3.03;;;;;;;22.57;50.32;102049.91;5092993;28;20048;-73
2022/10/29 03:52:07;;;;;;;5.95;2.90;;;;;;;22.63;49.97;102058.22;5093676;28;20039;-73
2022/10/29 03:54:32;;;;;;;6.65;3.30;;;;;;;22.63;50.25;102061.69;5089775;28;20058;-73
2022/10/29 03:56:58;;;;;;;7.38;3.30;;;;;;;22.70;50.33;102061.84;5090792;28;20036;-73
2022/10/29 03:59:23;;;;;;;8.95;3.53;;;;;;;22.65;49.89;102064.19;5097307;28;20489;-73
2022/10/29 04:01:49;;;;;;;6.80;3.20;;;;;;;22.62;49.81;102062.66;5090591;28;20046;-73
2022/10/29 04:04:14;;;;;;;8.25;2.83;;;;;;;22.63;50.02;102061.69;5089711;28;20649;-72
2022/10/29 04:06:40;;;;;;;6.65;3.10;;;;;;;22.66;50.26;102066.66;5089866;28;20046;-72
2022/10/29 04:09:05;;;;;;;7.28;2.83;;;;;;;22.66;50.16;102064.00;5090780;28;20044;-72
2022/10/29 04:11:31;;;;;;;6.95;3.58;;;;;;;22.57;50.39;102065.81;5089314;28;20047;-72
2022/10/29 04:13:56;;;;;;;9.25;3.15;;;;;;;22.61;50.10;102068.97;5088344;28;20035;-72
2022/10/29 04:16:22;;;;;;;7.93;3.00;;;;;;;22.56;50.36;102072.13;5090060;28;20047;-73
2022/10/29 04:18:49;;;;;;;6.78;3.25;;;;;;;22.67;50.12;102075.44;5089368;28;20047;-72
2022/10/29 04:21:16;;;;;;;6.32;2.58;;;;;;;22.57;50.43;102072.97;5090916;28;20142;-72
2022/10/29 04:23:41;;;;;;;9.38;3.75;;;;;;;22.47;50.29;102072.31;5091272;28;20035;-72
2022/10/29 04:26:07;;;;;;;5.15;2.83;;;;;;;22.55;50.30;102067.00;5092781;28;20048;-72
2022/10/29 04:28:33;;;;;;;8.20;3.45;;;;;;;22.62;50.25;102057.34;5090688;28;20142;-72
2022/10/29 04:31:06;;;;;;;6.65;2.67;;;;;;;22.58;49.85;102054.19;5092214;28;20050;-72
2022/10/29 04:33:32;;;;;;;6.85;3.10;;;;;;;22.59;49.88;102071.78;5086346;28;20055;-72
2022/10/29 04:35:58;;;;;;;10.10;3.15;;;;;;;22.58;50.03;102070.13;5089782;28;20036;-72
2022/10/29 04:38:23;;;;;;;7.60;3.00;;;;;;;22.54;50.15;102083.91;5104162;28;20051;-72
2022/10/29 04:40:49;;;;;;;5.97;3.25;;;;;;;22.54;50.52;102086.56;5089379;28;20039;-72
2022/10/29 04:43:15;;;;;;;6.95;3.33;;;;;;;22.54;50.34;102089.22;5087899;28;20032;-72
2022/10/29 04:45:41;;;;;;;9.55;3.38;;;;;;;22.57;50.04;102084.41;5089529;28;20115;-72
2022/10/29 04:48:07;;;;;;;8.27;4.07;;;;;;;22.59;50.12;102092.19;5089133;28;20031;-72
2022/10/29 04:50:35;;;;;;;7.70;2.97;;;;;;;22.53;50.05;102101.66;5094427;28;20036;-72
2022/10/29 04:53:02;;;;;;;6.53;3.47;;;;;;;22.53;50.41;102104.31;5089353;28;20706;-72
2022/10/29 04:55:31;;;;;;;8.20;3.38;;;;;;;22.59;49.84;102097.50;5094085;28;20076;-72
2022/10/29 04:57:56;;;;;;;11.77;3.00;;;;;;;22.54;50.00;102084.75;5087868;28;20047;-73
2022/10/29 05:00:22;;;;;;;8.60;3.83;;;;;;;22.57;49.84;102083.56;5090442;28;20039;-72
2022/10/29 05:02:50;;;;;;;9.30;3.60;;;;;;;22.54;50.33;102087.41;5090838;28;20116;-72
2022/10/29 05:05:17;;;;;;;7.35;3.08;;;;;;;22.51;50.39;102084.25;5089171;28;20132;-72
2022/10/29 05:07:43;;;;;;;6.13;3.40;;;;;;;22.54;50.04;102084.75;5086891;28;20056;-72
2022/10/29 05:10:09;;;;;;;6.28;3.40;;;;;;;22.49;50.04;102087.09;5087818;28;20067;-72
2022/10/29 05:12:35;;;;;;;6.35;2.72;;;;;;;22.48;50.29;102079.28;5092467;28;20165;-72
2022/10/29 05:15:00;;;;;;;6.63;2.72;;;;;;;22.52;50.23;102081.44;5094647;28;20044;-72
2022/10/29 05:17:26;;;;;;;6.75;3.00;;;;;;;22.39;50.60;102080.28;5089587;28;20520;-72
2022/10/29 05:19:52;;;;;;;7.75;3.08;;;;;;;22.46;50.21;102074.16;5092252;28;20043;-72
2022/10/29 05:22:17;;;;;;;8.18;3.63;;;;;;;22.41;50.34;102065.00;5094805;28;20035;-72
2022/10/29 05:24:43;;;;;;;9.63;3.40;;;;;;;22.54;50.09;102065.34;5094761;28;20039;-72
2022/10/29 05:27:08;;;;;;;7.90;3.55;;;;;;;22.50;50.00;102064.84;5095290;28;20161;-72
2022/10/29 05:29:34;;;;;;;8.38;3.30;;;;;;;22.43;50.13;102066.50;5091201;28;20040;-72
2022/10/29 05:32:00;;;;;;;7.10;2.92;;;;;;;22.50;50.13;102064.84;5094310;28;20044;-72
2022/10/29 05:34:25;;;;;;;6.82;3.33;;;;;;;22.47;50.05;102067.84;5093738;28;20043;-72
2022/10/29 05:36:51;;;;;;;5.97;3.28;;;;;;;22.46;50.30;102063.53;5093154;28;20042;-72
2022/10/29 05:39:16;;;;;;;7.47;3.00;;;;;;;22.52;49.95;102059.38;5092305;28;20060;-72
2022/10/29 05:41:42;;;;;;;8.95;3.03;;;;;;;22.44;50.17;102054.06;5091083;28;20050;-71
2022/10/29 05:44:08;;;;;;;6.72;3.25;;;;;;;22.51;49.98;102050.56;5088972;28;20039;-72
2022/10/29 05:46:33;;;;;;;5.53;2.95;;;;;;;22.43;50.15;102039.13;5092673;28;20044;-72
2022/10/29 05:48:59;;;;;;;7.00;3.15;;;;;;;22.40;50.45;102048.25;5093805;28;20039;-72
2022/10/29 05:51:24;;;;;;;6.32;3.17;;;;;;;22.43;50.41;102052.41;5093827;28;20044;-73
2022/10/29 05:53:50;;;;;;;6.47;2.75;;;;;;;22.47;50.02;102049.25;5093838;28;20044;-72
2022/10/29 05:56:16;;;;;;;6.43;3.20;;;;;;;22.50;49.95;102048.09;5091856;28;20056;-72
2022/10/29 05:58:41;;;;;;;5.70;2.85;;;;;;;22.43;50.04;102050.56;5091984;28;20055;-72
2022/10/29 06:01:10;;;;;;;4.35;2.90;;;;;;;22.44;50.39;102059.34;5092621;28;20044;-72
2022/10/29 06:03:37;;;;;;;7.13;2.75;;;;;;;22.38;50.11;102047.59;5093303;28;20542;-72
2022/10/29 06:06:02;;;;;;;6.47;3.03;;;;;;;22.44;50.34;102046.94;5090550;28;20043;-72
2022/10/29 06:08:28;;;;;;;4.70;2.92;;;;;;;22.44;50.26;102049.59;5087728;28;20024;-73
2022/10/29 06:10:54;;;;;;;4.68;3.13;;;;;;;22.43;50.38;102055.88;5083871;28;20044;-73
2022/10/29 06:13:20;;;;;;;5.55;3.03;;;;;;;22.43;50.17;102060.34;5086927;28;20252;-72
2022/10/29 06:15:47;;;;;;;7.20;3.05;;;;;;;22.39;50.04;102046.59;5090417;28;20128;-72
2022/10/29 06:18:13;;;;;;;4.95;2.95;;;;;;;22.40;50.20;102050.91;5092273;28;20028;-72
2022/10/29 06:20:39;;;;;;;5.40;2.80;;;;;;;22.42;50.02;102051.56;5092316;28;20062;-72
2022/10/29 06:23:05;;;;;;;4.65;2.42;;;;;;;22.40;50.35;102050.91;5090485;28;20034;-72
2022/10/29 06:25:31;;;;;;;3.40;2.45;;;;;;;22.38;50.38;102050.25;5090579;28;21752;-72
2022/10/29 06:28:08;;;;;;;4.15;2.67;;;;;;;22.33;50.55;102051.75;5091885;28;20027;-72
2022/10/29 06:30:35;;;;;;;4.97;2.90;;;;;;;22.39;50.06;102049.25;5088536;28;20063;-72
2022/10/29 06:33:03;;;;;;;4.93;2.83;;;;;;;22.32;50.42;102042.97;5089289;28;20707;-72
2022/10/29 06:35:29;;;;;;;6.07;3.10;;;;;;;22.36;50.43;102040.81;5084281;28;20055;-72
2022/10/29 06:37:54;;;;;;;5.65;2.90;;;;;;;22.29;50.66;102043.31;5089830;28;20521;-72
2022/10/29 06:40:20;;;;;;;6.05;2.78;;;;;;;22.37;50.22;102043.28;5095084;28;20035;-72
2022/10/29 06:42:45;;;;;;;7.85;3.50;;;;;;;22.35;50.25;102053.25;5088297;28;20036;-72
2022/10/29 06:45:12;;;;;;;7.03;3.00;;;;;;;22.39;50.27;102051.06;5083935;28;20774;-72
2022/10/29 06:47:42;;;;;;;5.82;3.42;;;;;;;22.33;50.24;102035.84;5087468;28;20050;-66
2022/10/29 06:50:09;;;;;;;6.15;3.08;;;;;;;22.32;50.50;102032.34;5090263;28;20421;-66
2022/10/29 06:52:35;;;;;;;5.63;3.10;;;;;;;22.35;50.53;102047.09;5084474;28;20048;-66
2022/10/29 06:55:02;;;;;;;7.47;2.97;;;;;;;22.39;49.95;102033.31;5090753;28;20054;-66
2022/10/29 06:57:28;;;;;;;5.90;2.95;;;;;;;22.35;50.43;102034.66;5089700;28;20152;-66
2022/10/29 06:59:54;;;;;;;5.90;3.00;;;;;;;22.38;50.14;102049.41;5086134;28;20040;-66
2022/10/29 07:02:21;;;;;;;5.43;2.85;;;;;;;22.33;50.38;102055.25;5087647;28;20709;-66
2022/10/29 07:04:47;;;;;;;6.50;3.17;;;;;;;22.30;50.57;102045.78;5088969;28;20047;-66
2022/10/29 07:07:13;;;;;;;4.88;3.20;;;;;;;22.32;50.53;102048.28;5089916;28;20412;-66
2022/10/29 07:09:39;;;;;;;5.90;3.00;;;;;;;22.28;50.45;102049.63;5088728;28;20130;-66
2022/10/29 07:12:05;;;;;;;5.57;2.92;;;;;;;22.30;50.44;102048.44;5087127;28;20043;-66
2022/10/29 07:14:31;;;;;;;5.32;3.28;;;;;;;22.37;50.56;102045.94;5092019;28;20043;-65
2022/10/29 07:16:56;;;;;;;5.88;2.97;;;;;;;22.26;50.51;102051.56;5086623;28;20039;-65
2022/10/29 07:19:22;;;;;;;5.53;3.22;;;;;;;22.29;50.50;102056.56;5090757;28;20035;-65
2022/10/29 07:21:47;;;;;;;5.68;2.90;;;;;;;22.28;50.63;102063.72;5093224;28;20040;-65
2022/10/29 07:24:13;;;;;;;5.15;2.65;;;;;;;22.29;50.39;102060.06;5089812;28;20040;-65
2022/10/29 07:26:38;;;;;;;5.85;3.30;;;;;;;22.32;50.35;102053.59;5086819;28;20043;-65
2022/10/29 07:29:04;;;;;;;5.78;3.30;;;;;;;22.25;50.57;102050.75;5094704;28;20039;-66
2022/10/29 07:31:30;;;;;;;7.45;3.28;;;;;;;22.28;50.42;102046.97;5094799;28;20040;-65
2022/10/29 07:33:56;;;;;;;6.35;3.85;;;;;;;22.28;50.50;102039.81;5097653;28;20040;-64
2022/10/29 07:36:22;;;;;;;6.93;3.22;;;;;;;22.33;50.23;102039.31;5091345;28;20032;-64
2022/10/29 07:38:48;;;;;;;5.72;2.80;;;;;;;22.33;50.22;102041.97;5099091;28;20888;-65
2022/10/29 07:41:13;;;;;;;5.90;3.33;;;;;;;22.34;50.67;102035.66;5094085;28;20039;-65
2022/10/29 07:43:39;;;;;;;5.32;3.17;;;;;;;22.31;50.55;102034.19;5094020;28;20036;-64
2022/10/29 07:46:05;;;;;;;5.55;2.75;;;;;;;22.32;50.33;102024.38;5089265;28;20035;-65
2022/10/29 07:48:30;;;;;;;9.38;4.43;;;;;;;22.44;50.74;102038.13;5085464;28;20089;-66
2022/10/29 07:51:00;;;;;;;8.90;4.63;;;;;;;22.34;51.27;102046.28;5092819;28;20047;-65
2022/10/29 07:53:26;;;;;;;9.52;4.38;;;;;;;22.28;50.94;102031.88;5087906;28;20047;-64
2022/10/29 07:55:55;;;;;;;9.55;4.60;;;;;;;22.36;50.92;102025.72;5085172;28;20063;-68
2022/10/29 07:58:21;;;;;;;17.75;5.93;;;;;;;22.23;51.55;102014.75;5090521;28;20151;-69
2022/10/29 08:00:46;;;;;;;11.65;5.00;;;;;;;22.29;51.38;102025.56;5092978;28;20031;-67
2022/10/29 08:03:12;;;;;;;13.32;5.10;;;;;;;22.20;51.23;102026.53;5091756;28;20043;-67
2022/10/29 08:05:38;;;;;;;9.23;4.95;;;;;;;22.23;51.58;102028.84;5093184;28;20147;-64
2022/10/29 08:08:04;;;;;;;11.23;5.20;;;;;;;22.25;51.14;102037.47;5088074;28;20119;-64
2022/10/29 08:10:31;;;;;;;11.98;4.95;;;;;;;22.24;51.51;102035.00;5094234;28;20440;-64
2022/10/29 08:12:59;;;;;;;13.15;5.25;;;;;;;22.22;51.46;102029.03;5093340;28;20654;-63
2022/10/29 08:15:29;;;;;;;14.57;5.28;;;;;;;22.19;51.29;102024.06;5097946;28;20538;-64
2022/10/29 08:17:55;;;;;;;20.63;6.32;;;;;;;22.28;51.27;102015.13;5093305;28;20035;-64
2022/10/29 08:20:22;;;;;;;12.27;6.03;;;;;;;22.12;51.58;102015.94;5091962;28;20093;-63
2022/10/29 08:22:48;;;;;;;11.73;5.32;;;;;;;22.19;51.46;102013.44;5095146;28;20053;-64
2022/10/29 08:25:14;;;;;;;14.23;6.03;;;;;;;22.14;51.25;102007.81;5091241;28;20497;-64
2022/10/29 08:27:39;;;;;;;13.55;6.25;;;;;;;22.24;50.92;102011.94;5095780;28;20040;-64
2022/10/29 08:30:06;;;;;;;15.32;5.47;;;;;;;22.11;51.38;102000.19;5087132;28;20484;-63
2022/10/29 08:32:31;;;;;;;13.80;6.55;;;;;;;22.23;51.25;102012.13;5096346;28;20637;-64
2022/10/29 08:34:57;;;;;;;8.98;4.80;;;;;;;22.07;51.24;102015.59;5089853;28;20069;-63
2022/10/29 08:37:22;;;;;;;12.00;5.80;;;;;;;22.14;51.30;102000.69;5091590;28;20036;-64
2022/10/29 08:39:48;;;;;;;12.90;5.43;;;;;;;22.13;51.24;102011.47;5096240;28;21815;-64
2022/10/29 08:42:16;;;;;;;15.25;5.90;;;;;;;22.09;51.13;102012.81;5090427;28;20109;-64
2022/10/29 08:45:09;;;;;;;16.45;5.63;;;;;;;22.09;51.23;102023.41;5095813;28;20043;-64
2022/10/29 08:48:14;;;;;;;14.25;5.95;;;;;;;22.20;51.17;102025.72;5097382;28;20090;-64
2022/10/29 08:50:46;;;;;;;13.80;7.22;;;;;;;22.11;51.35;102029.38;5062731;28;20056;-64
2022/10/29 08:53:23;;;;;;;17.92;6.93;;;;;;;22.17;50.88;102037.50;5100934;28;20036;-64
2022/10/29 08:55:49;;;;;;;14.45;5.97;;;;;;;22.00;51.46;102028.66;5093048;28;20035;-64
2022/10/29 08:58:32;;;;;;;18.35;7.03;;;;;;;22.07;51.36;102028.03;5094658;28;20998;-64
2022/10/29 09:00:58;;;;;;;13.35;5.90;;;;;;;22.06;51.37;102036.97;5089980;28;20048;-63
2022/10/29 09:03:27;;;;;;;12.05;5.47;;;;;;;22.04;51.74;102037.13;5099452;28;20055;-64
2022/10/29 09:06:05;;;;;;;13.43;5.95;;;;;;;22.06;51.21;102039.63;5091234;28;20044;-64
2022/10/29 09:08:39;;;;;;;12.82;5.90;;;;;;;22.05;51.49;102043.28;5093111;28;20023;-64
2022/10/29 09:11:34;;;;;;;12.90;6.55;;;;;;;22.01;51.40;102035.63;5094483;28;20044;-64
2022/10/29 09:14:05;;;;;;;13.75;6.07;;;;;;;22.05;51.38;102041.47;5097104;28;20746;-63
2022/10/29 09:17:02;;;;;;;14.63;6.07;;;;;;;22.07;51.29;102039.47;5098821;28;20028;-64
2022/10/29 09:20:02;;;;;;;14.27;6.53;;;;;;;22.01;51.58;102042.75;5093523;28;20402;-64
2022/10/29 09:22:39;;;;;;;14.68;6.78;;;;;;;22.01;51.78;102050.72;5096966;28;20088;-64
2022/10/29 09:25:32;;;;;;;13.88;6.10;;;;;;;21.99;51.58;102045.59;5091242;28;20553;-63
2022/10/29 09:28:39;;;;;;;15.18;6.55;;;;;;;21.98;51.50;102033.31;5098237;28;20027;-64
2022/10/29 09:31:28;;;;;;;14.10;6.65;;;;;;;21.98;51.89;102025.34;5097881;28;20043;-64
2022/10/29 09:34:00;;;;;;;16.20;6.05;;;;;;;22.02;51.55;102023.19;5090143;28;20054;-64
2022/10/29 09:36:26;;;;;;;12.23;5.90;;;;;;;21.95;51.81;102024.88;5093201;28;20046;-64
2022/10/29 09:39:02;;;;;;;14.35;6.18;;;;;;;22.02;51.78;102033.81;5099137;28;20081;-63
2022/10/29 09:41:32;;;;;;;18.55;7.40;;;;;;;22.04;51.57;102029.16;5094466;28;20136;-64
2022/10/29 09:44:28;;;;;;;19.60;7.05;;;;;;;22.03;51.40;102032.81;5088215;28;20539;-64
2022/10/29 09:47:22;;;;;;;16.77;6.88;;;;;;;21.97;51.68;102036.13;5091433;28;20524;-65
2022/10/29 09:50:29;;;;;;;15.75;6.93;;;;;;;21.96;51.89;102032.66;5093892;28;20119;-64
2022/10/29 09:52:55;;;;;;;16.98;7.03;;;;;;;22.00;51.56;102020.72;5084572;28;20653;-64
2022/10/29 09:55:32;;;;;;;14.07;7.30;;;;;;;21.99;51.92;102024.38;5089604;28;20031;-66
2022/10/29 09:57:58;;;;;;;16.00;6.13;;;;;;;21.79;52.00;102024.84;5090221;28;20425;-67
2022/10/29 10:00:27;;;;;;;11.32;6.15;;;;;;;21.85;51.87;102025.00;5088987;28;20044;-66
2022/10/29 10:03:14;;;;;;;13.38;6.45;;;;;;;21.77;52.31;102025.00;5098943;28;20061;-67
2022/10/29 10:06:02;;;;;;;17.58;6.72;;;;;;;21.86;51.76;102000.16;5091032;28;20359;-67
2022/10/29 10:08:28;;;;;;;14.10;6.03;;;;;;;21.87;51.75;101995.66;5084811;28;20502;-67
2022/10/29 10:10:57;;;;;;;12.07;5.97;;;;;;;21.86;51.77;102004.63;5096948;28;20774;-67
2022/10/29 10:13:26;;;;;;;15.02;6.63;;;;;;;21.92;51.75;102007.47;5088860;28;20096;-66
2022/10/29 10:15:55;;;;;;;13.02;6.32;;;;;;;21.91;51.54;102005.81;5092138;28;20763;-67
2022/10/29 10:18:23;;;;;;;13.82;6.15;;;;;;;21.88;51.71;101998.16;5097108;28;20036;-67
2022/10/29 10:21:13;;;;;;;11.25;5.75;;;;;;;21.90;51.95;102003.28;5089410;28;20780;-67
2022/10/29 10:23:44;;;;;;;16.08;7.00;;;;;;;22.03;51.51;101987.72;5079808;28;20063;-66
2022/10/29 10:26:27;;;;;;;16.30;7.75;;;;;;;22.09;51.33;101988.94;5091533;28;20042;-63
2022/10/29 10:29:23;;;;;;;15.90;8.65;;;;;;;22.16;51.64;101992.56;5095656;28;20035;-68
2022/10/29 10:31:49;;;;;;;19.80;9.98;;;;;;;22.02;52.14;101975.47;5085212;28;20054;-64
2022/10/29 10:34:22;;;;;;;17.63;9.13;;;;;;;21.97;52.11;101977.78;5092919;28;21267;-65
2022/10/29 10:36:51;;;;;;;18.70;9.38;;;;;;;21.91;52.40;101979.28;5099768;28;20039;-64
2022/10/29 10:39:26;;;;;;;15.63;7.15;;;;;;;21.85;52.21;101974.63;5094430;28;20126;-64
2022/10/29 10:41:54;;;;;;;15.20;7.75;;;;;;;21.96;52.09;101987.56;5099520;28;20556;-64
2022/10/29 10:44:22;;;;;;;15.85;7.90;;;;;;;21.96;51.94;101990.22;5101106;28;20126;-65
2022/10/29 10:46:50;;;;;;;19.65;8.23;;;;;;;21.97;52.15;101986.56;5102757;28;20036;-64
2022/10/29 10:49:27;;;;;;;14.60;8.38;;;;;;;22.00;51.71;101983.59;5095107;28;20044;-64
2022/10/29 10:51:55;;;;;;;16.10;6.93;;;;;;;21.97;52.10;101981.25;5098860;28;20067;-64
2022/10/29 10:54:28;;;;;;;16.90;8.02;;;;;;;21.99;51.74;101978.44;5091460;28;20047;-64
2022/10/29 10:56:59;;;;;;;18.40;7.93;;;;;;;21.93;52.13;101971.16;5102647;28;20148;-64
2022/10/29 10:59:41;;;;;;;17.45;8.13;;;;;;;21.90;52.00;101955.56;5097486;28;20492;-65
2022/10/29 11:02:18;;;;;;;18.10;9.18;;;;;;;21.98;51.69;101940.50;5095485;28;20058;-64
2022/10/29 11:04:48;;;;;;;20.63;8.73;;;;;;;21.94;52.01;101948.94;5093797;28;20035;-64
2022/10/29 11:07:16;;;;;;;19.05;8.15;;;;;;;21.99;52.04;101949.28;5096539;28;20111;-65
2022/10/29 11:09:49;;;;;;;17.08;8.07;;;;;;;22.00;52.11;101948.28;5094695;28;20047;-64
2022/10/29 11:12:33;;;;;;;16.15;7.75;;;;;;;22.08;51.68;101944.81;5090843;28;20040;-64
2022/10/29 11:15:03;;;;;;;18.63;7.95;;;;;;;22.03;52.01;101934.66;5092553;28;20117;-64
2022/10/29 11:17:47;;;;;;;16.27;8.20;;;;;;;22.02;52.22;101936.50;5094384;28;20032;-65
2022/10/29 11:20:24;;;;;;;20.48;8.88;;;;;;;22.03;52.05;101938.16;5089370;28;20073;-64
2022/10/29 11:23:10;;;;;;;17.98;8.70;;;;;;;22.05;51.79;101926.56;5089609;28;20028;-65
2022/10/29 11:25:43;;;;;;;16.55;7.95;;;;;;;22.01;52.28;101918.09;5096112;28;20044;-64
2022/10/29 11:28:24;;;;;;;17.67;8.35;;;;;;;22.06;52.18;101910.50;5098575;28;20587;-64
2022/10/29 11:30:57;;;;;;;19.95;8.68;;;;;;;22.06;52.13;101904.34;5101473;28;20067;-64
2022/10/29 11:33:58;;;;;;;16.25;8.27;;;;;;;22.06;52.28;101902.53;5094661;28;20035;-65
2022/10/29 11:36:28;;;;;;;15.55;9.07;;;;;;;22.07;51.94;101896.22;5107410;27;20050;-65